Time;durP1;ratioP1;P1;durP2;ratioP2;P2;SDS_P1;SDS_P2;PMS_P1;PMS_P2;Temp;Humidity;BMP_temperature;BMP_pressure;BME280_temperature;BME280_humidity;BME280_pressure;Samples;Min_cycle;Max_cycle;Signal;HPM_P1;HPM_P2
2022/05/10 00:02:17;;;;;;;8.27;3.07;;;18.50;65.80;;;;;;4963732;28;20200;-78
2022/05/10 00:04:51;;;;;;;5.37;3.17;;;18.50;65.70;;;;;;4961854;28;20286;-78
2022/05/10 00:07:21;;;;;;;12.33;3.10;;;18.50;65.70;;;;;;4963017;28;20221;-79
2022/05/10 00:09:49;;;;;;;8.00;3.03;;;18.50;65.60;;;;;;4960197;28;20196;-78
2022/05/10 00:12:17;;;;;;;6.63;2.97;;;18.50;65.60;;;;;;4965478;28;20643;-78
2022/05/10 00:14:46;;;;;;;8.03;2.93;;;18.50;65.60;;;;;;4958554;28;20202;-78
2022/05/10 00:17:25;;;;;;;8.07;3.20;;;18.50;65.60;;;;;;4958090;28;20215;-78
2022/05/10 00:19:55;;;;;;;8.40;3.47;;;18.50;66.30;;;;;;4960031;28;20202;-78
2022/05/10 00:22:23;;;;;;;9.53;3.03;;;18.50;65.40;;;;;;4958297;28;20212;-78
2022/05/10 00:24:52;;;;;;;8.57;2.73;;;18.50;65.40;;;;;;4962922;28;20198;-78
2022/05/10 00:27:20;;;;;;;5.83;2.70;;;18.40;65.30;;;;;;4960874;28;20710;-78
2022/05/10 00:29:48;;;;;;;7.63;2.50;;;18.50;65.50;;;;;;4959984;28;20201;-78
2022/05/10 00:32:17;;;;;;;6.37;2.70;;;18.50;65.50;;;;;;4963468;28;20190;-78
2022/05/10 00:34:47;;;;;;;9.80;2.53;;;18.40;65.50;;;;;;4961334;28;20617;-78
2022/05/10 00:37:20;;;;;;;6.60;2.60;;;18.40;65.30;;;;;;4963013;28;20193;-79
2022/05/10 00:39:49;;;;;;;6.83;2.53;;;18.50;65.20;;;;;;4962802;28;20194;-78
2022/05/10 00:42:24;;;;;;;5.33;3.00;;;18.50;65.10;;;;;;4958885;28;20198;-79
2022/05/10 00:44:58;;;;;;;5.07;2.40;;;18.50;65.00;;;;;;4957171;28;20202;-77
2022/05/10 00:47:33;;;;;;;4.77;2.10;;;18.50;64.90;;;;;;4957149;28;20635;-78
2022/05/10 00:50:07;;;;;;;6.97;1.90;;;18.60;64.90;;;;;;4958198;28;20702;-78
2022/05/10 00:52:47;;;;;;;3.83;2.20;;;18.50;65.00;;;;;;4958154;28;20217;-78
2022/05/10 00:55:21;;;;;;;6.57;2.20;;;18.60;64.80;;;;;;4962417;28;20208;-78
2022/05/10 00:57:54;;;;;;;3.77;2.00;;;18.60;64.60;;;;;;4963453;28;20197;-78
2022/05/10 01:00:25;;;;;;;11.13;2.90;;;18.60;64.60;;;;;;4961368;28;20716;-78
2022/05/10 01:03:06;;;;;;;4.17;2.37;;;18.60;64.60;;;;;;4957628;28;20189;-78
2022/05/10 01:05:41;;;;;;;3.80;1.87;;;18.70;64.50;;;;;;4960260;28;20920;-78
2022/05/10 01:08:17;;;;;;;4.67;2.00;;;18.70;64.50;;;;;;4960637;28;20212;-79
2022/05/10 01:10:52;;;;;;;3.93;1.90;;;18.70;64.50;;;;;;4962467;28;20199;-79
2022/05/10 01:13:28;;;;;;;3.70;1.90;;;18.70;64.30;;;;;;4959868;28;20205;-79
2022/05/10 01:16:07;;;;;;;4.80;1.97;;;18.70;64.40;;;;;;4959800;28;20200;-78
2022/05/10 01:18:36;;;;;;;5.10;2.07;;;18.80;64.40;;;;;;4965329;28;20193;-77
2022/05/10 01:21:23;;;;;;;7.57;2.10;;;18.80;64.20;;;;;;4964562;28;20302;-78
2022/05/10 01:24:29;;;;;;;6.80;1.97;;;18.80;64.20;;;;;;4962592;28;20190;-78
2022/05/10 01:27:10;;;;;;;5.70;2.10;;;18.90;64.30;;;;;;4960907;28;20703;-79
2022/05/10 01:29:44;;;;;;;9.90;2.40;;;18.80;64.20;;;;;;4960520;28;20194;-77
2022/05/10 01:35:08;;;;;;;2.83;1.70;;;18.90;64.30;;;;;;4962457;28;20619;-78
2022/05/10 01:37:39;;;;;;;5.10;2.50;;;18.90;64.50;;;;;;4959779;28;20198;-78
2022/05/10 01:40:17;;;;;;;4.63;2.17;;;18.90;64.60;;;;;;4963264;28;20193;-78
2022/05/10 01:42:52;;;;;;;3.43;1.90;;;18.90;64.60;;;;;;4961907;28;20198;-78
2022/05/10 01:45:28;;;;;;;4.30;2.10;;;19.00;64.70;;;;;;4962521;28;20231;-78
2022/05/10 01:47:58;;;;;;;4.83;2.50;;;19.00;65.40;;;;;;4960554;28;20237;-79
2022/05/10 01:50:32;;;;;;;7.93;2.30;;;18.90;65.60;;;;;;4962360;28;20194;-78
2022/05/10 01:53:06;;;;;;;7.60;2.50;;;18.90;65.40;;;;;;4959096;28;20189;-78
2022/05/10 01:55:37;;;;;;;4.27;2.10;;;19.00;65.50;;;;;;4960277;28;20192;-78
2022/05/10 01:58:09;;;;;;;5.60;2.40;;;19.00;65.50;;;;;;4961992;28;20221;-77
2022/05/10 02:00:41;;;;;;;4.23;2.03;;;19.00;65.60;;;;;;4962936;28;20201;-77
2022/05/10 02:03:17;;;;;;;4.97;2.33;;;19.00;65.70;;;;;;4959530;28;20205;-78
2022/05/10 02:05:52;;;;;;;5.77;2.30;;;19.00;65.60;;;;;;4963495;28;20198;-78
2022/05/10 02:08:29;;;;;;;5.13;2.30;;;19.00;65.90;;;;;;4960993;28;20244;-78
2022/05/10 02:11:01;;;;;;;4.68;2.55;;;19.00;66.00;;;;;;4962614;28;20440;-77
2022/05/10 02:13:36;;;;;;;6.90;2.53;;;19.00;66.70;;;;;;4960025;28;20744;-78
2022/05/10 02:16:15;;;;;;;4.27;2.20;;;19.00;67.00;;;;;;4959441;28;20766;-78
2022/05/10 02:18:50;;;;;;;5.47;2.20;;;19.00;67.00;;;;;;4955054;28;20202;-77
2022/05/10 02:21:24;;;;;;;5.90;2.93;;;19.00;66.80;;;;;;4962518;28;20204;-78
2022/05/10 02:23:58;;;;;;;5.87;2.70;;;19.00;67.00;;;;;;4953529;28;20190;-79
2022/05/10 02:26:31;;;;;;;5.37;2.20;;;19.00;67.20;;;;;;4960838;28;20285;-78
2022/05/10 02:29:09;;;;;;;5.07;2.57;;;19.00;66.90;;;;;;4960787;28;20604;-78
2022/05/10 02:34:35;;;;;;;4.77;2.50;;;19.00;66.70;;;;;;4959944;28;20190;-78
2022/05/10 02:37:04;;;;;;;6.50;2.70;;;19.00;66.70;;;;;;4957558;28;20190;-77
2022/05/10 02:39:33;;;;;;;5.73;3.00;;;19.00;66.60;;;;;;4958258;28;20726;-78
2022/05/10 02:42:02;;;;;;;4.90;2.63;;;19.10;66.60;;;;;;4961732;28;20691;-78
2022/05/10 02:44:35;;;;;;;5.33;2.87;;;19.00;66.80;;;;;;4960956;28;20189;-77
2022/05/10 02:47:09;;;;;;;4.93;2.80;;;19.00;66.70;;;;;;4958025;28;20707;-77
2022/05/10 02:49:39;;;;;;;6.60;2.57;;;19.10;66.90;;;;;;4955095;28;20194;-77
2022/05/10 02:52:08;;;;;;;5.90;2.77;;;19.10;67.00;;;;;;4955542;28;20202;-77
2022/05/10 02:54:36;;;;;;;6.70;3.03;;;19.00;67.30;;;;;;4959120;28;20205;-77
2022/05/10 02:57:06;;;;;;;5.10;2.90;;;19.00;67.30;;;;;;4958321;28;20200;-78
2022/05/10 02:59:36;;;;;;;4.57;2.60;;;19.00;67.50;;;;;;4955818;28;20690;-77
2022/05/10 03:02:13;;;;;;;7.33;3.17;;;19.00;67.40;;;;;;4961789;28;20201;-77
2022/05/10 03:04:43;;;;;;;5.67;2.87;;;19.00;67.50;;;;;;4959368;28;20198;-77
2022/05/10 03:07:12;;;;;;;5.23;2.80;;;19.00;67.30;;;;;;4959049;28;20194;-77
2022/05/10 03:09:40;;;;;;;6.30;2.90;;;19.00;67.30;;;;;;4955784;28;20222;-77
2022/05/10 03:12:09;;;;;;;5.37;3.00;;;19.00;67.30;;;;;;4959960;28;20206;-77
2022/05/10 03:14:38;;;;;;;6.93;2.77;;;19.00;67.20;;;;;;4961900;28;20210;-77
2022/05/10 03:17:10;;;;;;;4.13;2.57;;;19.00;67.30;;;;;;4963071;28;20202;-77
2022/05/10 03:19:39;;;;;;;7.20;2.93;;;19.00;67.30;;;;;;4954189;28;20196;-77
2022/05/10 03:22:08;;;;;;;6.57;3.00;;;19.00;67.30;;;;;;4953846;28;20436;-78
2022/05/10 03:24:37;;;;;;;4.73;2.77;;;19.00;67.40;;;;;;4959956;28;20198;-77
2022/05/10 03:27:07;;;;;;;7.50;2.90;;;19.00;67.60;;;;;;4961528;28;20202;-77
2022/05/10 03:29:36;;;;;;;6.63;2.60;;;19.00;68.00;;;;;;4960930;28;20233;-77
2022/05/10 03:32:05;;;;;;;9.80;2.90;;;19.00;68.20;;;;;;4959552;28;20225;-76
2022/05/10 03:37:20;;;;;;;5.87;2.73;;;18.90;68.20;;;;;;4958621;28;20594;-76
2022/05/10 03:39:48;;;;;;;6.17;2.73;;;18.90;68.00;;;;;;4958929;28;20201;-76
2022/05/10 03:42:19;;;;;;;6.13;2.97;;;18.90;68.20;;;;;;4955020;28;20202;-76
2022/05/10 03:44:49;;;;;;;7.70;3.53;;;18.90;67.90;;;;;;4962707;28;20302;-76
2022/05/10 03:47:18;;;;;;;6.80;3.10;;;18.90;68.10;;;;;;4958523;28;20253;-76
2022/05/10 03:49:49;;;;;;;12.10;3.00;;;18.80;68.10;;;;;;4958569;28;20237;-76
2022/05/10 03:52:17;;;;;;;6.93;2.97;;;18.80;68.00;;;;;;4954942;28;20198;-76
2022/05/10 03:54:46;;;;;;;6.53;3.73;;;18.80;68.20;;;;;;4955207;28;20190;-77
2022/05/10 03:57:14;;;;;;;6.17;3.00;;;18.70;68.30;;;;;;4957967;28;20197;-77
2022/05/10 03:59:43;;;;;;;9.43;3.43;;;18.70;68.30;;;;;;4960834;28;20206;-76
2022/05/10 04:02:12;;;;;;;9.50;3.60;;;18.70;68.40;;;;;;4958731;28;20205;-75
2022/05/10 04:04:41;;;;;;;11.70;4.20;;;18.70;68.50;;;;;;4961100;28;20202;-76
2022/05/10 04:07:11;;;;;;;6.00;3.40;;;18.70;68.80;;;;;;4960633;28;20197;-76
2022/05/10 04:09:39;;;;;;;9.87;3.43;;;18.60;68.80;;;;;;4961434;28;20224;-76
2022/05/10 04:12:09;;;;;;;7.43;3.57;;;18.60;69.10;;;;;;4957686;28;20202;-75
2022/05/10 04:14:37;;;;;;;11.70;3.60;;;18.60;69.30;;;;;;4961607;28;20200;-76
2022/05/10 04:17:06;;;;;;;7.63;3.80;;;18.60;69.30;;;;;;4957181;28;20201;-76
2022/05/10 04:19:34;;;;;;;12.03;4.47;;;18.50;69.60;;;;;;4958257;28;20194;-75
2022/05/10 04:22:03;;;;;;;9.60;3.77;;;18.50;69.60;;;;;;4952949;28;20197;-76
2022/05/10 04:24:32;;;;;;;8.17;3.80;;;18.50;69.80;;;;;;4953446;28;20202;-76
2022/05/10 04:27:01;;;;;;;9.50;4.40;;;18.50;69.90;;;;;;4951553;28;20538;-76
2022/05/10 04:29:30;;;;;;;9.33;3.73;;;18.50;69.90;;;;;;4958822;28;20221;-76
2022/05/10 04:31:58;;;;;;;10.87;4.17;;;18.50;70.20;;;;;;4960830;28;20711;-76
2022/05/10 04:34:26;;;;;;;10.20;3.90;;;18.50;70.00;;;;;;4958746;28;20225;-77
2022/05/10 04:36:55;;;;;;;14.10;4.53;;;18.50;70.10;;;;;;4956378;28;20205;-77
2022/05/10 04:39:23;;;;;;;12.27;5.20;;;18.50;70.10;;;;;;4956780;28;21153;-77
2022/05/10 04:41:53;;;;;;;12.13;3.80;;;18.60;70.20;;;;;;4958983;28;20202;-76
2022/05/10 04:44:22;;;;;;;10.03;3.80;;;18.50;70.30;;;;;;4959854;28;20236;-76
2022/05/10 04:46:52;;;;;;;12.07;3.97;;;18.50;70.50;;;;;;4961818;28;20228;-76
2022/05/10 04:49:20;;;;;;;15.13;4.60;;;18.50;70.60;;;;;;4959956;28;20226;-76
2022/05/10 04:51:48;;;;;;;10.67;3.90;;;18.60;70.60;;;;;;4959179;28;20209;-77
2022/05/10 04:54:17;;;;;;;9.33;4.40;;;18.60;70.70;;;;;;4962680;28;20411;-76
2022/05/10 04:56:45;;;;;;;8.77;4.30;;;18.60;70.90;;;;;;4961225;28;20201;-77
2022/05/10 04:59:15;;;;;;;7.23;3.67;;;18.60;71.10;;;;;;4963878;28;20299;-76
2022/05/10 05:01:43;;;;;;;11.90;4.37;;;18.60;71.30;;;;;;4958117;28;20202;-76
2022/05/10 05:04:12;;;;;;;9.50;4.13;;;18.60;71.50;;;;;;4960078;28;20280;-76
2022/05/10 05:06:40;;;;;;;11.83;4.57;;;18.60;71.80;;;;;;4958686;28;20194;-77
2022/05/10 05:09:08;;;;;;;7.60;4.30;;;18.60;72.10;;;;;;4960190;28;20224;-76
2022/05/10 05:11:37;;;;;;;7.90;4.37;;;18.60;72.50;;;;;;4962205;28;20205;-75
2022/05/10 05:14:05;;;;;;;10.17;4.83;;;18.60;72.70;;;;;;4959640;28;20190;-76
2022/05/10 05:16:35;;;;;;;7.93;4.50;;;18.50;72.90;;;;;;4959808;28;20209;-76
2022/05/10 05:19:05;;;;;;;7.50;4.40;;;18.50;73.20;;;;;;4963016;28;20190;-76
2022/05/10 05:21:33;;;;;;;7.10;4.07;;;18.50;73.40;;;;;;4957121;28;20197;-76
2022/05/10 05:24:02;;;;;;;17.23;5.27;;;18.50;73.70;;;;;;4957712;28;20198;-76
2022/05/10 05:26:30;;;;;;;10.97;4.87;;;18.60;74.70;;;;;;4963246;28;20205;-77
2022/05/10 05:28:59;;;;;;;7.23;4.57;;;18.50;74.60;;;;;;4964971;28;20245;-76
2022/05/10 05:31:28;;;;;;;10.17;4.30;;;18.60;73.80;;;;;;4967120;28;20205;-76
2022/05/10 05:33:58;;;;;;;8.30;4.30;;;18.60;73.90;;;;;;4967484;28;20200;-76
2022/05/10 05:36:26;;;;;;;8.77;4.90;;;18.60;73.90;;;;;;4964216;28;20560;-76
2022/05/10 05:38:54;;;;;;;9.60;4.50;;;18.60;73.90;;;;;;4968140;28;20731;-76
2022/05/10 05:41:23;;;;;;;9.60;4.30;;;18.70;74.00;;;;;;4960452;28;20194;-76
2022/05/10 05:43:51;;;;;;;8.43;4.20;;;18.70;74.00;;;;;;4955442;28;20224;-76
2022/05/10 05:46:19;;;;;;;7.03;4.13;;;18.70;74.10;;;;;;4962800;28;20232;-76
2022/05/10 05:48:48;;;;;;;8.07;4.53;;;18.70;74.10;;;;;;4964391;28;20208;-76
2022/05/10 05:51:18;;;;;;;7.90;4.00;;;18.80;74.20;;;;;;4959578;28;20229;-75
2022/05/10 05:53:46;;;;;;;7.07;4.00;;;18.80;74.20;;;;;;4955545;28;20246;-77
2022/05/10 05:56:15;;;;;;;10.13;4.30;;;18.80;74.30;;;;;;4966287;28;20448;-77
2022/05/10 05:58:43;;;;;;;6.23;3.53;;;18.80;75.60;;;;;;4961074;28;20204;-76
2022/05/10 06:01:13;;;;;;;6.20;3.70;;;18.80;75.40;;;;;;4960863;28;20193;-76
2022/05/10 06:03:43;;;;;;;8.23;3.77;;;18.80;75.00;;;;;;4960390;28;20210;-76
2022/05/10 06:06:12;;;;;;;7.60;3.70;;;18.80;74.90;;;;;;4953854;28;20699;-78
2022/05/10 06:08:46;;;;;;;7.00;3.60;;;18.90;75.00;;;;;;4952294;28;20193;-76
2022/05/10 06:11:16;;;;;;;6.23;3.40;;;18.80;75.80;;;;;;4959372;28;20222;-76
2022/05/10 06:13:44;;;;;;;6.43;3.33;;;18.90;75.40;;;;;;4957948;28;20185;-76
2022/05/10 06:16:13;;;;;;;5.33;3.97;;;18.90;75.20;;;;;;4956914;28;20202;-74
2022/05/10 06:18:42;;;;;;;6.80;3.40;;;18.90;75.40;;;;;;4954188;28;20210;-77
2022/05/10 06:21:11;;;;;;;6.63;3.43;;;18.90;75.20;;;;;;4961511;28;20196;-76
2022/05/10 06:23:39;;;;;;;6.47;3.40;;;18.90;75.20;;;;;;4970458;28;20237;-77
2022/05/10 06:26:09;;;;;;;8.03;4.17;;;18.90;75.20;;;;;;4960164;28;20226;-76
2022/05/10 06:28:38;;;;;;;7.73;3.60;;;19.00;75.20;;;;;;4961241;28;20201;-76
2022/05/10 06:31:07;;;;;;;6.57;3.50;;;19.00;75.40;;;;;;4961575;28;20232;-76
2022/05/10 06:33:36;;;;;;;8.17;4.00;;;19.10;75.40;;;;;;4957817;28;20285;-76
2022/05/10 06:36:05;;;;;;;9.87;3.53;;;19.00;75.20;;;;;;4955975;28;20861;-76
2022/05/10 06:38:34;;;;;;;8.10;3.70;;;19.10;75.40;;;;;;4959061;28;20733;-77
2022/05/10 06:41:04;;;;;;;8.43;3.57;;;19.10;75.40;;;;;;4963473;28;20197;-76
2022/05/10 06:43:36;;;;;;;6.30;3.37;;;19.10;75.30;;;;;;4961903;28;20210;-76
2022/05/10 06:46:09;;;;;;;6.47;3.10;;;19.10;75.30;;;;;;4965977;28;20214;-77
2022/05/10 06:48:40;;;;;;;5.57;2.87;;;19.20;75.40;;;;;;4958710;28;20186;-76
2022/05/10 06:51:10;;;;;;;7.60;3.93;;;19.20;75.30;;;;;;4961088;28;20625;-77
2022/05/10 06:53:38;;;;;;;6.43;3.90;;;19.30;75.40;;;;;;4960040;28;20241;-77
2022/05/10 06:56:07;;;;;;;6.27;3.17;;;19.30;75.30;;;;;;4965692;28;20205;-77
2022/05/10 06:58:38;;;;;;;5.33;3.23;;;19.30;75.40;;;;;;4964917;28;20194;-77
2022/05/10 07:01:11;;;;;;;6.00;3.23;;;19.30;75.60;;;;;;4960081;28;20206;-76
2022/05/10 07:03:43;;;;;;;6.23;3.13;;;19.30;75.40;;;;;;4959131;28;20635;-78
2022/05/10 07:06:13;;;;;;;8.13;3.20;;;19.30;75.40;;;;;;4966083;28;20205;-77
2022/05/10 07:08:41;;;;;;;7.10;3.23;;;19.40;75.20;;;;;;4963642;28;20202;-77
2022/05/10 07:11:10;;;;;;;6.17;3.23;;;19.30;75.40;;;;;;4965627;28;20241;-76
2022/05/10 07:13:40;;;;;;;6.87;3.60;;;19.40;75.50;;;;;;4969855;28;20194;-79
2022/05/10 07:16:09;;;;;;;6.77;3.20;;;19.40;75.80;;;;;;4962700;28;20692;-77
2022/05/10 07:18:37;;;;;;;7.03;3.13;;;19.40;75.50;;;;;;4965390;28;20233;-76
2022/05/10 07:21:06;;;;;;;5.17;3.10;;;19.40;75.40;;;;;;4967363;28;20208;-76
2022/05/10 07:23:34;;;;;;;5.70;3.80;;;19.50;75.40;;;;;;4964935;28;20567;-76
2022/05/10 07:26:04;;;;;;;6.17;2.63;;;19.50;75.50;;;;;;4962024;28;20716;-77
2022/05/10 07:28:33;;;;;;;8.70;3.67;;;19.60;75.60;;;;;;4962116;28;20204;-77
2022/05/10 07:31:03;;;;;;;6.50;3.33;;;19.60;75.80;;;;;;4962630;28;20637;-76
2022/05/10 07:33:32;;;;;;;7.43;3.23;;;19.60;75.80;;;;;;4964955;28;20224;-76
2022/05/10 07:38:46;;;;;;;6.53;4.03;;;19.60;76.10;;;;;;4956160;28;20190;-76
2022/05/10 07:41:14;;;;;;;7.30;3.50;;;19.50;77.20;;;;;;4964180;28;20197;-77
2022/05/10 07:43:42;;;;;;;8.33;3.73;;;19.50;77.50;;;;;;4963834;28;20189;-79
2022/05/10 07:46:12;;;;;;;7.60;3.73;;;19.50;77.70;;;;;;4964621;28;20222;-78
2022/05/10 07:48:41;;;;;;;8.40;4.00;;;19.50;77.70;;;;;;4966299;28;20194;-81
2022/05/10 07:51:09;;;;;;;9.17;3.97;;;19.50;78.30;;;;;;4965677;28;20221;-77
2022/05/10 07:53:38;;;;;;;7.00;3.50;;;19.50;79.40;;;;;;4955748;28;20203;-78
2022/05/10 07:56:12;;;;;;;7.17;4.37;;;19.50;78.20;;;;;;4958182;28;20194;-77
2022/05/10 07:58:53;;;;;;;6.50;3.60;;;19.50;78.40;;;;;;4961797;28;20190;-78
2022/05/10 08:01:23;;;;;;;6.50;4.17;;;19.50;78.30;;;;;;4961837;28;20205;-76
2022/05/10 08:03:52;;;;;;;6.00;3.77;;;19.50;78.50;;;;;;4960449;28;20904;-77
2022/05/10 08:06:21;;;;;;;9.05;4.60;;;19.50;79.00;;;;;;4959604;28;20455;-79
2022/05/10 08:08:49;;;;;;;6.03;4.00;;;19.50;79.30;;;;;;4967254;28;20209;-76
2022/05/10 08:11:18;;;;;;;8.37;3.97;;;19.50;79.70;;;;;;4961645;28;20797;-77
2022/05/10 08:13:46;;;;;;;6.83;4.10;;;19.50;79.90;;;;;;4964154;28;20540;-77
2022/05/10 08:16:16;;;;;;;8.10;3.93;;;19.50;79.80;;;;;;4960679;28;20201;-75
2022/05/10 08:18:48;;;;;;;7.67;3.90;;;19.50;80.80;;;;;;4964819;28;20233;-76
2022/05/10 08:21:17;;;;;;;9.67;4.73;;;19.50;80.00;;;;;;4972671;28;20190;-76
2022/05/10 08:23:47;;;;;;;12.87;4.33;;;19.50;79.80;;;;;;4977827;28;20204;-77
2022/05/10 08:26:16;;;;;;;5.93;3.93;;;19.60;79.80;;;;;;4967971;28;20202;-76
2022/05/10 08:28:45;;;;;;;7.20;4.30;;;19.60;80.10;;;;;;4970597;28;20206;-76
2022/05/10 08:31:13;;;;;;;8.37;4.03;;;19.60;80.10;;;;;;4972669;28;20218;-76
2022/05/10 08:33:45;;;;;;;12.43;4.37;;;19.60;80.30;;;;;;4966446;28;20266;-77
2022/05/10 08:36:14;;;;;;;6.67;4.30;;;19.60;80.40;;;;;;4969782;28;20202;-77
2022/05/10 08:38:43;;;;;;;7.77;4.60;;;19.70;81.10;;;;;;4969313;28;20229;-77
2022/05/10 08:41:15;;;;;;;6.77;4.13;;;19.70;80.50;;;;;;4964147;28;20529;-75
2022/05/10 08:43:47;;;;;;;8.33;4.50;;;19.70;80.60;;;;;;4960866;28;20197;-75
2022/05/10 08:46:18;;;;;;;9.07;4.50;;;19.70;80.90;;;;;;4960222;28;20757;-74
2022/05/10 08:48:51;;;;;;;4.77;3.70;;;19.80;80.70;;;;;;4963705;28;20198;-75
2022/05/10 08:51:22;;;;;;;10.57;4.57;;;19.80;81.10;;;;;;4966690;28;20213;-75
2022/05/10 08:53:51;;;;;;;7.70;3.83;;;19.90;80.80;;;;;;4966988;28;20644;-75
2022/05/10 08:56:25;;;;;;;7.90;4.43;;;19.90;80.90;;;;;;4965983;28;20875;-75
2022/05/10 08:59:03;;;;;;;7.73;4.07;;;19.90;80.70;;;;;;4965913;28;20197;-75
2022/05/10 09:01:47;;;;;;;8.47;4.90;;;20.00;80.80;;;;;;4959870;28;20233;-75
2022/05/10 09:04:28;;;;;;;8.30;3.93;;;20.10;80.70;;;;;;4966680;28;20256;-75
2022/05/10 09:07:13;;;;;;;6.87;4.10;;;20.10;80.60;;;;;;4963545;28;20189;-75
2022/05/10 09:09:53;;;;;;;8.07;3.83;;;20.10;80.50;;;;;;4960192;28;21781;-75
2022/05/10 09:12:23;;;;;;;8.50;4.27;;;20.20;80.50;;;;;;4963103;28;20673;-75
2022/05/10 09:14:56;;;;;;;7.33;4.20;;;20.20;80.20;;;;;;4967720;28;20213;-74
2022/05/10 09:17:29;;;;;;;7.60;3.93;;;20.30;80.30;;;;;;4957529;28;20206;-75
2022/05/10 09:19:59;;;;;;;7.83;4.37;;;20.30;80.40;;;;;;4963905;28;20202;-75
2022/05/10 09:23:05;;;;;;;8.33;4.13;;;20.40;80.60;;;;;;4960361;28;20205;-75
2022/05/10 09:25:36;;;;;;;6.80;4.47;;;20.40;80.30;;;;;;4964264;28;20208;-77
2022/05/10 09:28:15;;;;;;;8.30;4.60;;;20.40;80.20;;;;;;4965154;28;20801;-77
2022/05/10 09:34:45;;;;;;;6.50;4.20;;;20.50;80.30;;;;;;4960779;28;20221;-77
2022/05/10 09:36:26;;;;;;;10.40;4.40;;;20.60;80.30;;;;;;4968692;28;20186;-76
2022/05/10 09:39:02;;;;;;;8.43;4.20;;;20.70;80.20;;;;;;4963845;28;20197;-75
2022/05/10 09:41:37;;;;;;;6.40;4.50;;;20.70;80.20;;;;;;4963134;28;20190;-77
2022/05/10 09:44:27;;;;;;;7.03;4.70;;;20.70;80.20;;;;;;4961331;28;20197;-76
2022/05/10 09:47:13;;;;;;;7.27;4.73;;;20.80;80.40;;;;;;4960326;28;20232;-75
2022/05/10 09:49:41;;;;;;;10.27;5.10;;;20.90;80.30;;;;;;4957786;28;20193;-76
2022/05/10 09:52:19;;;;;;;8.60;4.63;;;20.90;80.40;;;;;;4953711;28;20233;-76
2022/05/10 09:54:52;;;;;;;8.33;4.33;;;20.90;80.40;;;;;;4954441;28;20204;-76
2022/05/10 09:57:34;;;;;;;7.97;5.00;;;21.00;80.40;;;;;;4964154;28;20202;-77
2022/05/10 10:00:04;;;;;;;7.97;4.37;;;21.10;80.40;;;;;;4960031;28;20194;-76
2022/05/10 10:02:36;;;;;;;7.30;4.17;;;21.10;80.30;;;;;;4957374;28;20269;-78
2022/05/10 10:05:22;;;;;;;7.60;4.50;;;21.20;80.20;;;;;;4963300;28;20196;-77
2022/05/10 10:07:53;;;;;;;7.90;4.37;;;21.20;80.20;;;;;;4966453;28;20197;-78
2022/05/10 10:10:27;;;;;;;9.43;4.60;;;21.30;80.10;;;;;;4961920;28;20273;-77
2022/05/10 10:12:56;;;;;;;7.23;4.43;;;21.30;80.00;;;;;;4966872;28;20299;-77
2022/05/10 10:15:31;;;;;;;7.73;5.07;;;21.40;79.90;;;;;;4958324;28;20701;-77
2022/05/10 10:18:04;;;;;;;8.43;5.00;;;21.40;80.00;;;;;;4952184;28;20225;-77
2022/05/10 10:20:40;;;;;;;7.80;5.13;;;21.40;80.10;;;;;;4962023;28;20198;-77
2022/05/10 10:23:23;;;;;;;7.77;4.27;;;21.40;80.10;;;;;;4958910;28;20189;-77
2022/05/10 10:25:56;;;;;;;7.33;4.63;;;21.50;80.00;;;;;;4942704;28;20216;-78
2022/05/10 10:28:31;;;;;;;8.37;5.13;;;21.50;79.80;;;;;;4956965;28;20747;-77
2022/05/10 10:31:05;;;;;;;7.87;4.57;;;21.60;79.80;;;;;;4963740;28;20204;-76
2022/05/10 10:33:37;;;;;;;8.00;4.97;;;21.60;79.60;;;;;;4958455;28;20218;-77
2022/05/10 10:36:12;;;;;;;7.87;4.63;;;21.60;79.40;;;;;;4963433;28;20200;-75
2022/05/10 10:38:52;;;;;;;10.23;4.63;;;21.70;79.30;;;;;;4967210;28;20189;-76
2022/05/10 10:41:32;;;;;;;6.88;4.20;;;21.70;78.80;;;;;;4963614;28;20441;-76
2022/05/10 10:44:06;;;;;;;6.77;4.10;;;21.80;78.60;;;;;;4962301;28;20193;-77
2022/05/10 10:46:41;;;;;;;8.43;3.80;;;21.80;78.30;;;;;;4958620;28;20225;-76
2022/05/10 10:49:13;;;;;;;6.22;4.07;;;21.90;78.10;;;;;;4962644;28;20201;-76
2022/05/10 10:51:42;;;;;;;8.40;3.30;;;21.90;77.90;;;;;;4961979;28;20193;-76
2022/05/10 10:54:16;;;;;;;8.05;3.45;;;22.00;77.50;;;;;;4964894;28;20205;-76
2022/05/10 10:56:59;;;;;;;5.28;2.78;;;22.10;76.70;;;;;;4963040;28;20188;-76
2022/05/10 10:59:48;;;;;;;7.40;3.20;;;22.10;76.20;;;;;;4963792;28;20193;-76
2022/05/10 11:02:39;;;;;;;5.10;2.88;;;22.10;76.00;;;;;;4962252;28;20212;-75
2022/05/10 11:05:23;;;;;;;11.43;3.33;;;22.20;75.30;;;;;;4951190;28;20421;-76
2022/05/10 11:08:11;;;;;;;6.18;3.53;;;22.30;74.80;;;;;;4958520;28;20195;-76
2022/05/10 11:10:47;;;;;;;5.70;2.92;;;22.30;73.90;;;;;;4961053;28;20194;-76
2022/05/10 11:13:28;;;;;;;7.25;2.80;;;22.40;73.70;;;;;;4955150;28;20213;-77
2022/05/10 11:16:08;;;;;;;8.50;2.55;;;22.50;72.40;;;;;;4962904;28;20196;-76
2022/05/10 11:18:50;;;;;;;4.72;3.13;;;22.60;72.50;;;;;;4956878;28;20245;-75
2022/05/10 11:21:31;;;;;;;4.80;2.80;;;22.80;72.60;;;;;;4951245;28;20189;-75
2022/05/10 11:24:06;;;;;;;4.80;2.83;;;22.90;72.00;;;;;;4963445;28;20196;-76
2022/05/10 11:26:47;;;;;;;7.53;2.90;;;22.90;71.00;;;;;;4962625;28;20196;-74
2022/05/10 11:29:34;;;;;;;5.57;2.72;;;23.00;71.00;;;;;;4957926;28;20572;-75
2022/05/10 11:32:15;;;;;;;3.97;2.65;;;23.10;70.80;;;;;;4949596;28;20937;-76
2022/05/10 11:35:01;;;;;;;4.28;2.53;;;23.20;70.10;;;;;;4959934;28;20204;-74
2022/05/10 11:37:36;;;;;;;7.90;3.17;;;23.30;70.30;;;;;;4959790;28;20443;-75
2022/05/10 11:40:28;;;;;;;4.95;3.00;;;23.30;68.70;;;;;;4963614;28;20197;-76
2022/05/10 11:43:23;;;;;;;3.70;2.10;;;23.30;68.30;;;;;;4956638;28;20213;-75
2022/05/10 11:46:20;;;;;;;3.75;2.30;;;23.40;68.10;;;;;;4956846;28;20202;-77
2022/05/10 11:49:14;;;;;;;7.80;2.65;;;23.50;68.00;;;;;;4952725;28;20197;-75
2022/05/10 11:52:08;;;;;;;5.18;2.60;;;23.60;68.30;;;;;;4954449;28;20667;-76
2022/05/10 11:55:21;;;;;;;4.00;2.45;;;23.60;67.60;;;;;;4958857;28;20197;-77
2022/05/10 11:57:54;;;;;;;7.13;2.72;;;23.60;67.60;;;;;;4934077;28;20612;-78
2022/05/10 12:00:43;;;;;;;5.57;2.40;;;23.70;66.80;;;;;;4955976;28;20194;-77
2022/05/10 12:03:34;;;;;;;5.40;2.70;;;23.80;66.80;;;;;;4965850;28;20648;-78
2022/05/10 12:06:38;;;;;;;5.18;2.40;;;23.90;66.60;;;;;;4965773;28;20205;-77
2022/05/10 12:09:08;;;;;;;4.13;2.28;;;24.00;66.10;;;;;;4968898;28;20626;-77
2022/05/10 12:11:41;;;;;;;6.78;3.03;;;24.10;66.40;;;;;;4966783;28;20201;-79
2022/05/10 12:23:00;;;;;;;7.60;3.15;;;24.30;65.00;;;;;;4968009;28;20202;-76
2022/05/10 12:25:57;;;;;;;4.38;2.42;;;24.30;64.50;;;;;;4966705;28;20318;-78
2022/05/10 12:28:41;;;;;;;8.18;2.40;;;24.30;63.30;;;;;;4962492;28;20194;-77
2022/05/10 12:31:51;;;;;;;3.05;2.22;;;24.30;63.40;;;;;;4971091;28;20778;-78
2022/05/10 12:34:40;;;;;;;4.00;2.45;;;24.30;63.50;;;;;;4968397;28;20236;-81
2022/05/10 12:37:48;;;;;;;4.78;2.30;;;24.40;62.90;;;;;;4964952;28;20648;-76
2022/05/10 12:40:31;;;;;;;4.53;2.38;;;24.40;61.90;;;;;;4971764;28;20189;-76
2022/05/10 12:43:17;;;;;;;4.32;2.58;;;24.40;61.30;;;;;;4963703;28;20193;-76
2022/05/10 12:45:55;;;;;;;5.82;2.55;;;24.40;60.80;;;;;;4962771;28;20198;-77
2022/05/10 12:48:39;;;;;;;4.78;2.50;;;24.40;61.20;;;;;;4968497;28;20265;-79
2022/05/10 12:51:24;;;;;;;4.78;2.20;;;24.50;61.00;;;;;;4968707;28;20265;-77
2022/05/10 12:53:58;;;;;;;4.75;2.17;;;24.50;60.50;;;;;;4971538;28;20221;-78
2022/05/10 12:56:29;;;;;;;4.85;1.85;;;24.50;60.70;;;;;;4970372;28;20202;-77
2022/05/10 12:59:06;;;;;;;4.72;2.20;;;24.60;60.80;;;;;;4963961;28;20790;-77
2022/05/10 13:01:37;;;;;;;4.05;1.83;;;24.60;60.30;;;;;;4961498;28;20584;-78
2022/05/10 13:04:13;;;;;;;4.22;2.20;;;24.60;60.30;;;;;;4966751;28;20278;-77
2022/05/10 13:06:50;;;;;;;3.90;2.10;;;24.60;59.40;;;;;;4956707;28;20297;-77
2022/05/10 13:09:30;;;;;;;5.28;2.10;;;24.70;59.00;;;;;;4957869;28;20603;-77
2022/05/10 13:12:07;;;;;;;3.42;2.08;;;24.70;58.30;;;;;;4965281;28;20193;-78
2022/05/10 13:14:41;;;;;;;2.70;1.88;;;24.80;58.90;;;;;;4959840;28;20216;-77
2022/05/10 13:17:10;;;;;;;3.53;2.38;;;24.90;59.20;;;;;;4964307;28;20197;-77
2022/05/10 13:19:42;;;;;;;5.50;2.17;;;25.20;59.30;;;;;;4968814;28;20225;-78
2022/05/10 13:22:15;;;;;;;3.22;1.75;;;25.40;58.20;;;;;;4969407;28;20190;-77
2022/05/10 13:24:45;;;;;;;5.28;2.00;;;25.50;57.00;;;;;;4968248;28;20221;-77
2022/05/10 13:27:25;;;;;;;4.15;1.88;;;25.60;56.90;;;;;;4966515;28;20633;-77
2022/05/10 13:29:55;;;;;;;3.42;2.13;;;25.60;56.80;;;;;;4955656;28;20189;-78
2022/05/10 13:32:33;;;;;;;6.28;2.13;;;25.60;56.30;;;;;;4954851;28;20198;-78
2022/05/10 13:35:19;;;;;;;2.83;1.70;;;25.60;55.60;;;;;;4951912;28;20242;-78
2022/05/10 13:37:55;;;;;;;4.43;2.10;;;25.60;55.30;;;;;;4961480;28;20193;-78
2022/05/10 13:40:28;;;;;;;4.32;1.92;;;25.60;55.50;;;;;;4961901;28;20201;-78
2022/05/10 13:43:10;;;;;;;2.83;1.70;;;25.60;55.30;;;;;;4953165;28;20201;-76